Nome, Alaska
Current Conditions -  °F | °C
As of 4:53 PM on Tuesday 21 Oct 2014 (Local Time) from PAOM Reporting Station
Broken Clouds Broken Clouds  
Wind Chill: 32°   Ceiling: 4200
Heat Index: 37°   Visibility: 10mi
Dew Point: 22°   Wind: 7mph
Humidity: 54%   Direction: 70°ENE
Pressure: 29.58"   Gusts: NA
Location:  64.5°N, 165.41°W
Report Text: PAOM 220053Z 07006KT 10SM BKN042 03/M06 A2958 RMK SLP016 T00281056 VIA AUTODIAL
Loading
Personal Weather Stations






























Interactive Weather Map New forecast layout! Learn more

10-Day Weather Forecast

Advertisements
Track Severe Weather on mobile